sensor_id;sensor_type;location;lat;lon;timestamp;P1;durP1;ratioP1;P2;durP2;ratioP2
40781;SDS011;26493;51.938;7.626;2023-01-30T00:01:20;45.53;;;28.55;;
40781;SDS011;26493;51.938;7.626;2023-01-30T00:03:47;51.55;;;31.13;;
40781;SDS011;26493;51.938;7.626;2023-01-30T00:06:13;51.33;;;31.23;;
40781;SDS011;26493;51.938;7.626;2023-01-30T00:08:39;51.63;;;28.48;;
40781;SDS011;26493;51.938;7.626;2023-01-30T00:11:06;48.22;;;30.65;;
40781;SDS011;26493;51.938;7.626;2023-01-30T00:13:32;47.33;;;28.50;;
40781;SDS011;26493;51.938;7.626;2023-01-30T00:15:58;45.30;;;31.42;;
40781;SDS011;26493;51.938;7.626;2023-01-30T00:18:24;47.03;;;28.95;;
40781;SDS011;26493;51.938;7.626;2023-01-30T00:20:54;41.45;;;27.85;;
40781;SDS011;26493;51.938;7.626;2023-01-30T00:23:20;51.20;;;31.15;;
40781;SDS011;26493;51.938;7.626;2023-01-30T00:25:46;55.58;;;32.22;;
40781;SDS011;26493;51.938;7.626;2023-01-30T00:28:13;48.72;;;31.52;;
40781;SDS011;26493;51.938;7.626;2023-01-30T00:30:39;47.80;;;30.70;;
40781;SDS011;26493;51.938;7.626;2023-01-30T00:33:05;49.75;;;32.38;;
40781;SDS011;26493;51.938;7.626;2023-01-30T00:35:31;51.63;;;28.95;;
40781;SDS011;26493;51.938;7.626;2023-01-30T00:37:57;37.00;;;24.08;;
40781;SDS011;26493;51.938;7.626;2023-01-30T00:40:24;45.55;;;29.33;;
40781;SDS011;26493;51.938;7.626;2023-01-30T00:42:50;48.00;;;32.30;;
40781;SDS011;26493;51.938;7.626;2023-01-30T00:45:34;49.30;;;30.98;;
40781;SDS011;26493;51.938;7.626;2023-01-30T00:48:20;49.42;;;31.23;;
40781;SDS011;26493;51.938;7.626;2023-01-30T00:50:46;50.30;;;28.08;;
40781;SDS011;26493;51.938;7.626;2023-01-30T00:53:13;47.85;;;31.90;;
40781;SDS011;26493;51.938;7.626;2023-01-30T00:55:39;39.78;;;25.75;;
40781;SDS011;26493;51.938;7.626;2023-01-30T00:58:07;52.10;;;30.30;;
40781;SDS011;26493;51.938;7.626;2023-01-30T01:00:33;44.53;;;26.75;;
40781;SDS011;26493;51.938;7.626;2023-01-30T01:02:59;50.15;;;30.90;;
40781;SDS011;26493;51.938;7.626;2023-01-30T01:05:26;48.83;;;33.58;;
40781;SDS011;26493;51.938;7.626;2023-01-30T01:07:52;54.00;;;31.83;;
40781;SDS011;26493;51.938;7.626;2023-01-30T01:10:18;55.63;;;34.08;;
40781;SDS011;26493;51.938;7.626;2023-01-30T01:12:44;48.53;;;30.08;;
40781;SDS011;26493;51.938;7.626;2023-01-30T01:15:11;50.45;;;31.75;;
40781;SDS011;26493;51.938;7.626;2023-01-30T01:17:38;50.35;;;32.03;;
40781;SDS011;26493;51.938;7.626;2023-01-30T01:20:04;47.75;;;28.95;;
40781;SDS011;26493;51.938;7.626;2023-01-30T01:22:31;46.20;;;29.02;;
40781;SDS011;26493;51.938;7.626;2023-01-30T01:24:57;42.42;;;26.67;;
40781;SDS011;26493;51.938;7.626;2023-01-30T01:27:23;51.47;;;31.95;;
40781;SDS011;26493;51.938;7.626;2023-01-30T01:29:49;57.35;;;34.30;;
40781;SDS011;26493;51.938;7.626;2023-01-30T01:32:15;64.85;;;30.77;;
40781;SDS011;26493;51.938;7.626;2023-01-30T01:34:41;50.33;;;33.83;;
40781;SDS011;26493;51.938;7.626;2023-01-30T01:37:07;58.58;;;38.88;;
40781;SDS011;26493;51.938;7.626;2023-01-30T01:39:33;57.00;;;34.90;;
40781;SDS011;26493;51.938;7.626;2023-01-30T01:42:17;50.85;;;38.92;;
40781;SDS011;26493;51.938;7.626;2023-01-30T01:44:57;51.50;;;36.53;;
40781;SDS011;26493;51.938;7.626;2023-01-30T01:47:25;58.70;;;35.25;;
40781;SDS011;26493;51.938;7.626;2023-01-30T01:49:51;55.40;;;40.80;;
40781;SDS011;26493;51.938;7.626;2023-01-30T01:52:18;58.72;;;39.70;;
40781;SDS011;26493;51.938;7.626;2023-01-30T01:54:48;48.45;;;37.95;;
40781;SDS011;26493;51.938;7.626;2023-01-30T01:57:17;58.55;;;39.40;;
40781;SDS011;26493;51.938;7.626;2023-01-30T01:59:45;63.70;;;40.55;;
40781;SDS011;26493;51.938;7.626;2023-01-30T02:02:12;65.47;;;41.63;;
40781;SDS011;26493;51.938;7.626;2023-01-30T02:04:40;57.97;;;38.38;;
40781;SDS011;26493;51.938;7.626;2023-01-30T02:10:22;69.00;;;42.92;;
40781;SDS011;26493;51.938;7.626;2023-01-30T02:12:49;51.88;;;33.58;;
40781;SDS011;26493;51.938;7.626;2023-01-30T02:15:17;66.38;;;40.90;;
40781;SDS011;26493;51.938;7.626;2023-01-30T02:17:44;60.13;;;38.03;;
40781;SDS011;26493;51.938;7.626;2023-01-30T02:33:51;60.13;;;35.88;;
40781;SDS011;26493;51.938;7.626;2023-01-30T02:43:50;70.90;;;44.50;;
40781;SDS011;26493;51.938;7.626;2023-01-30T02:46:17;63.10;;;43.38;;
40781;SDS011;26493;51.938;7.626;2023-01-30T02:48:46;62.45;;;43.75;;
40781;SDS011;26493;51.938;7.626;2023-01-30T02:51:17;59.72;;;39.25;;
40781;SDS011;26493;51.938;7.626;2023-01-30T02:53:44;52.15;;;35.60;;
40781;SDS011;26493;51.938;7.626;2023-01-30T02:56:11;45.03;;;33.85;;
40781;SDS011;26493;51.938;7.626;2023-01-30T02:58:38;58.80;;;39.92;;
40781;SDS011;26493;51.938;7.626;2023-01-30T03:01:08;68.80;;;44.47;;
40781;SDS011;26493;51.938;7.626;2023-01-30T03:08:57;65.45;;;42.60;;
40781;SDS011;26493;51.938;7.626;2023-01-30T03:11:29;49.38;;;40.10;;
40781;SDS011;26493;51.938;7.626;2023-01-30T03:14:11;64.30;;;45.28;;
40781;SDS011;26493;51.938;7.626;2023-01-30T03:16:39;62.67;;;49.67;;
40781;SDS011;26493;51.938;7.626;2023-01-30T03:19:08;67.57;;;51.33;;
40781;SDS011;26493;51.938;7.626;2023-01-30T03:21:40;64.03;;;51.67;;
40781;SDS011;26493;51.938;7.626;2023-01-30T03:24:06;69.82;;;56.55;;
40781;SDS011;26493;51.938;7.626;2023-01-30T03:26:33;67.82;;;53.15;;
40781;SDS011;26493;51.938;7.626;2023-01-30T03:29:00;64.00;;;57.33;;
40781;SDS011;26493;51.938;7.626;2023-01-30T03:31:27;72.53;;;61.00;;
40781;SDS011;26493;51.938;7.626;2023-01-30T03:33:53;60.97;;;54.97;;
40781;SDS011;26493;51.938;7.626;2023-01-30T03:36:19;73.28;;;63.83;;
40781;SDS011;26493;51.938;7.626;2023-01-30T03:38:44;70.38;;;63.00;;
40781;SDS011;26493;51.938;7.626;2023-01-30T03:41:10;77.90;;;69.57;;
40781;SDS011;26493;51.938;7.626;2023-01-30T03:43:36;68.90;;;61.95;;
40781;SDS011;26493;51.938;7.626;2023-01-30T03:46:02;73.50;;;66.18;;
40781;SDS011;26493;51.938;7.626;2023-01-30T03:48:28;73.32;;;65.93;;
40781;SDS011;26493;51.938;7.626;2023-01-30T03:50:54;73.25;;;65.68;;
40781;SDS011;26493;51.938;7.626;2023-01-30T03:53:22;81.80;;;73.55;;
40781;SDS011;26493;51.938;7.626;2023-01-30T03:55:48;79.75;;;72.15;;
40781;SDS011;26493;51.938;7.626;2023-01-30T03:58:14;82.95;;;75.13;;
40781;SDS011;26493;51.938;7.626;2023-01-30T04:00:40;79.18;;;71.32;;
40781;SDS011;26493;51.938;7.626;2023-01-30T04:03:06;84.85;;;75.70;;
40781;SDS011;26493;51.938;7.626;2023-01-30T04:05:32;81.25;;;73.65;;
40781;SDS011;26493;51.938;7.626;2023-01-30T04:07:58;81.85;;;74.10;;
40781;SDS011;26493;51.938;7.626;2023-01-30T04:10:24;78.07;;;70.47;;
40781;SDS011;26493;51.938;7.626;2023-01-30T04:12:50;81.63;;;74.55;;
40781;SDS011;26493;51.938;7.626;2023-01-30T04:15:16;80.05;;;72.47;;
40781;SDS011;26493;51.938;7.626;2023-01-30T04:17:43;78.13;;;71.07;;
40781;SDS011;26493;51.938;7.626;2023-01-30T04:20:09;84.20;;;75.93;;
40781;SDS011;26493;51.938;7.626;2023-01-30T04:22:35;85.75;;;77.85;;
40781;SDS011;26493;51.938;7.626;2023-01-30T04:25:01;82.35;;;74.90;;
40781;SDS011;26493;51.938;7.626;2023-01-30T04:27:27;76.03;;;69.55;;
40781;SDS011;26493;51.938;7.626;2023-01-30T04:29:53;79.65;;;72.40;;
40781;SDS011;26493;51.938;7.626;2023-01-30T04:32:19;77.70;;;70.93;;
40781;SDS011;26493;51.938;7.626;2023-01-30T04:34:45;77.40;;;70.20;;
40781;SDS011;26493;51.938;7.626;2023-01-30T04:37:11;78.40;;;70.97;;
40781;SDS011;26493;51.938;7.626;2023-01-30T04:39:37;76.22;;;69.47;;
40781;SDS011;26493;51.938;7.626;2023-01-30T04:42:03;78.93;;;71.85;;
40781;SDS011;26493;51.938;7.626;2023-01-30T04:44:30;75.70;;;68.90;;
40781;SDS011;26493;51.938;7.626;2023-01-30T04:46:56;72.22;;;65.30;;
40781;SDS011;26493;51.938;7.626;2023-01-30T04:49:22;69.70;;;63.63;;
40781;SDS011;26493;51.938;7.626;2023-01-30T04:51:48;70.80;;;64.10;;
40781;SDS011;26493;51.938;7.626;2023-01-30T04:54:14;71.47;;;65.05;;
40781;SDS011;26493;51.938;7.626;2023-01-30T04:56:39;71.50;;;64.82;;
40781;SDS011;26493;51.938;7.626;2023-01-30T04:59:05;81.43;;;67.47;;
40781;SDS011;26493;51.938;7.626;2023-01-30T05:01:33;71.97;;;65.35;;
40781;SDS011;26493;51.938;7.626;2023-01-30T05:03:59;69.28;;;63.00;;
40781;SDS011;26493;51.938;7.626;2023-01-30T05:06:25;51.35;;;47.55;;
40781;SDS011;26493;51.938;7.626;2023-01-30T05:08:52;51.67;;;47.97;;
40781;SDS011;26493;51.938;7.626;2023-01-30T05:11:19;51.05;;;47.40;;
40781;SDS011;26493;51.938;7.626;2023-01-30T05:13:45;50.67;;;47.05;;
40781;SDS011;26493;51.938;7.626;2023-01-30T05:16:11;51.00;;;47.10;;
40781;SDS011;26493;51.938;7.626;2023-01-30T05:18:38;49.72;;;46.13;;
40781;SDS011;26493;51.938;7.626;2023-01-30T05:21:04;53.90;;;49.67;;
40781;SDS011;26493;51.938;7.626;2023-01-30T05:23:31;52.10;;;48.30;;
40781;SDS011;26493;51.938;7.626;2023-01-30T05:25:57;55.63;;;51.53;;
40781;SDS011;26493;51.938;7.626;2023-01-30T05:28:23;52.55;;;48.75;;
40781;SDS011;26493;51.938;7.626;2023-01-30T05:30:49;50.53;;;46.83;;
40781;SDS011;26493;51.938;7.626;2023-01-30T05:33:15;49.95;;;46.25;;
40781;SDS011;26493;51.938;7.626;2023-01-30T05:35:48;48.80;;;45.20;;
40781;SDS011;26493;51.938;7.626;2023-01-30T05:38:15;52.08;;;48.38;;
40781;SDS011;26493;51.938;7.626;2023-01-30T05:40:41;50.25;;;46.75;;
40781;SDS011;26493;51.938;7.626;2023-01-30T05:43:07;49.92;;;46.42;;
40781;SDS011;26493;51.938;7.626;2023-01-30T05:45:34;48.88;;;45.45;;
40781;SDS011;26493;51.938;7.626;2023-01-30T05:48:00;49.20;;;45.78;;
40781;SDS011;26493;51.938;7.626;2023-01-30T05:50:26;49.70;;;46.20;;
40781;SDS011;26493;51.938;7.626;2023-01-30T05:52:52;50.92;;;47.38;;
40781;SDS011;26493;51.938;7.626;2023-01-30T05:55:18;49.38;;;45.88;;
40781;SDS011;26493;51.938;7.626;2023-01-30T05:57:44;37.90;;;34.95;;
40781;SDS011;26493;51.938;7.626;2023-01-30T06:00:10;38.03;;;35.08;;
40781;SDS011;26493;51.938;7.626;2023-01-30T06:02:37;35.38;;;32.58;;
40781;SDS011;26493;51.938;7.626;2023-01-30T06:05:04;36.78;;;33.97;;
40781;SDS011;26493;51.938;7.626;2023-01-30T06:07:30;38.03;;;35.13;;
40781;SDS011;26493;51.938;7.626;2023-01-30T06:09:56;38.85;;;35.95;;
40781;SDS011;26493;51.938;7.626;2023-01-30T06:12:22;41.30;;;38.30;;
40781;SDS011;26493;51.938;7.626;2023-01-30T06:14:48;42.90;;;39.80;;
40781;SDS011;26493;51.938;7.626;2023-01-30T06:17:14;44.65;;;41.25;;
40781;SDS011;26493;51.938;7.626;2023-01-30T06:19:40;43.22;;;40.13;;
40781;SDS011;26493;51.938;7.626;2023-01-30T06:22:06;44.67;;;41.47;;
40781;SDS011;26493;51.938;7.626;2023-01-30T06:24:32;45.15;;;41.95;;
40781;SDS011;26493;51.938;7.626;2023-01-30T06:26:58;43.90;;;40.80;;
40781;SDS011;26493;51.938;7.626;2023-01-30T06:29:24;46.30;;;42.90;;
40781;SDS011;26493;51.938;7.626;2023-01-30T06:31:50;44.67;;;41.38;;
40781;SDS011;26493;51.938;7.626;2023-01-30T06:34:16;44.45;;;41.15;;
40781;SDS011;26493;51.938;7.626;2023-01-30T06:36:42;44.70;;;41.30;;
40781;SDS011;26493;51.938;7.626;2023-01-30T06:39:08;44.03;;;40.83;;
40781;SDS011;26493;51.938;7.626;2023-01-30T06:41:34;46.67;;;43.38;;
40781;SDS011;26493;51.938;7.626;2023-01-30T06:44:00;42.25;;;39.10;;
40781;SDS011;26493;51.938;7.626;2023-01-30T06:46:26;43.50;;;40.30;;
40781;SDS011;26493;51.938;7.626;2023-01-30T06:48:52;43.83;;;40.63;;
40781;SDS011;26493;51.938;7.626;2023-01-30T06:51:18;44.97;;;41.67;;
40781;SDS011;26493;51.938;7.626;2023-01-30T06:53:44;42.60;;;39.45;;
40781;SDS011;26493;51.938;7.626;2023-01-30T06:56:10;44.08;;;40.88;;
40781;SDS011;26493;51.938;7.626;2023-01-30T06:58:36;45.05;;;41.83;;
40781;SDS011;26493;51.938;7.626;2023-01-30T07:01:02;45.45;;;42.25;;
40781;SDS011;26493;51.938;7.626;2023-01-30T07:03:28;46.13;;;42.83;;
40781;SDS011;26493;51.938;7.626;2023-01-30T07:05:54;44.05;;;40.85;;
40781;SDS011;26493;51.938;7.626;2023-01-30T07:08:20;43.38;;;40.28;;
40781;SDS011;26493;51.938;7.626;2023-01-30T07:10:46;41.35;;;38.35;;
40781;SDS011;26493;51.938;7.626;2023-01-30T07:13:12;41.65;;;38.65;;
40781;SDS011;26493;51.938;7.626;2023-01-30T07:15:38;39.15;;;36.25;;
40781;SDS011;26493;51.938;7.626;2023-01-30T07:18:04;38.40;;;35.60;;
40781;SDS011;26493;51.938;7.626;2023-01-30T07:20:30;37.22;;;34.42;;
40781;SDS011;26493;51.938;7.626;2023-01-30T07:22:57;36.63;;;33.83;;
40781;SDS011;26493;51.938;7.626;2023-01-30T07:25:23;35.38;;;32.65;;
40781;SDS011;26493;51.938;7.626;2023-01-30T07:27:50;35.95;;;33.15;;
40781;SDS011;26493;51.938;7.626;2023-01-30T07:30:16;35.65;;;32.85;;
40781;SDS011;26493;51.938;7.626;2023-01-30T07:32:43;33.63;;;30.92;;
40781;SDS011;26493;51.938;7.626;2023-01-30T07:35:08;33.20;;;30.63;;
40781;SDS011;26493;51.938;7.626;2023-01-30T07:37:34;33.83;;;31.23;;
40781;SDS011;26493;51.938;7.626;2023-01-30T07:40:01;34.13;;;31.52;;
40781;SDS011;26493;51.938;7.626;2023-01-30T07:42:27;34.15;;;31.55;;
40781;SDS011;26493;51.938;7.626;2023-01-30T07:44:53;34.03;;;31.42;;
40781;SDS011;26493;51.938;7.626;2023-01-30T07:47:19;32.85;;;30.35;;
40781;SDS011;26493;51.938;7.626;2023-01-30T07:49:45;32.65;;;30.15;;
40781;SDS011;26493;51.938;7.626;2023-01-30T07:52:11;32.78;;;30.20;;
40781;SDS011;26493;51.938;7.626;2023-01-30T07:54:37;32.58;;;30.05;;
40781;SDS011;26493;51.938;7.626;2023-01-30T07:57:02;33.17;;;30.58;;
40781;SDS011;26493;51.938;7.626;2023-01-30T07:59:28;33.28;;;30.67;;
40781;SDS011;26493;51.938;7.626;2023-01-30T08:01:54;33.13;;;30.52;;
40781;SDS011;26493;51.938;7.626;2023-01-30T08:04:22;33.70;;;31.10;;
40781;SDS011;26493;51.938;7.626;2023-01-30T08:06:48;31.45;;;28.95;;
40781;SDS011;26493;51.938;7.626;2023-01-30T08:09:14;30.88;;;28.48;;
40781;SDS011;26493;51.938;7.626;2023-01-30T08:11:40;32.35;;;29.85;;
40781;SDS011;26493;51.938;7.626;2023-01-30T08:14:06;31.85;;;29.35;;
40781;SDS011;26493;51.938;7.626;2023-01-30T08:16:32;32.40;;;29.63;;
40781;SDS011;26493;51.938;7.626;2023-01-30T08:18:58;36.08;;;32.67;;
40781;SDS011;26493;51.938;7.626;2023-01-30T08:21:24;29.42;;;27.13;;
40781;SDS011;26493;51.938;7.626;2023-01-30T08:23:50;29.02;;;26.73;;
40781;SDS011;26493;51.938;7.626;2023-01-30T08:26:16;29.13;;;26.83;;
40781;SDS011;26493;51.938;7.626;2023-01-30T08:28:42;28.65;;;26.35;;
40781;SDS011;26493;51.938;7.626;2023-01-30T08:31:09;29.23;;;26.92;;
40781;SDS011;26493;51.938;7.626;2023-01-30T08:33:36;26.33;;;24.13;;
40781;SDS011;26493;51.938;7.626;2023-01-30T08:36:02;25.75;;;23.55;;
40781;SDS011;26493;51.938;7.626;2023-01-30T08:38:28;23.85;;;21.85;;
40781;SDS011;26493;51.938;7.626;2023-01-30T08:40:54;23.80;;;21.80;;
40781;SDS011;26493;51.938;7.626;2023-01-30T08:43:22;20.73;;;18.83;;
40781;SDS011;26493;51.938;7.626;2023-01-30T08:45:48;18.33;;;16.52;;
40781;SDS011;26493;51.938;7.626;2023-01-30T08:48:14;15.57;;;13.88;;
40781;SDS011;26493;51.938;7.626;2023-01-30T08:50:40;16.17;;;14.00;;
40781;SDS011;26493;51.938;7.626;2023-01-30T08:53:07;15.20;;;13.07;;
40781;SDS011;26493;51.938;7.626;2023-01-30T08:55:34;14.63;;;11.83;;
40781;SDS011;26493;51.938;7.626;2023-01-30T08:58:00;14.48;;;11.15;;
40781;SDS011;26493;51.938;7.626;2023-01-30T09:00:26;14.70;;;11.93;;
40781;SDS011;26493;51.938;7.626;2023-01-30T09:02:53;14.90;;;11.85;;
40781;SDS011;26493;51.938;7.626;2023-01-30T09:05:20;14.50;;;11.27;;
40781;SDS011;26493;51.938;7.626;2023-01-30T09:07:55;14.63;;;11.63;;
40781;SDS011;26493;51.938;7.626;2023-01-30T09:10:21;14.90;;;12.30;;
40781;SDS011;26493;51.938;7.626;2023-01-30T09:12:48;14.82;;;12.15;;
40781;SDS011;26493;51.938;7.626;2023-01-30T09:15:14;14.40;;;10.98;;
40781;SDS011;26493;51.938;7.626;2023-01-30T09:17:40;14.57;;;11.48;;
40781;SDS011;26493;51.938;7.626;2023-01-30T09:20:08;14.50;;;11.27;;
40781;SDS011;26493;51.938;7.626;2023-01-30T09:22:35;14.18;;;10.40;;
40781;SDS011;26493;51.938;7.626;2023-01-30T09:25:01;14.13;;;10.10;;
40781;SDS011;26493;51.938;7.626;2023-01-30T09:27:27;15.25;;;11.77;;
40781;SDS011;26493;51.938;7.626;2023-01-30T09:29:53;14.13;;;10.18;;
40781;SDS011;26493;51.938;7.626;2023-01-30T09:32:19;14.02;;;10.02;;
40781;SDS011;26493;51.938;7.626;2023-01-30T09:34:45;13.95;;;10.05;;
40781;SDS011;26493;51.938;7.626;2023-01-30T09:37:11;13.98;;;9.80;;
40781;SDS011;26493;51.938;7.626;2023-01-30T09:39:38;13.77;;;9.38;;
40781;SDS011;26493;51.938;7.626;2023-01-30T09:47:12;14.00;;;9.98;;
40781;SDS011;26493;51.938;7.626;2023-01-30T09:52:14;14.00;;;9.80;;
40781;SDS011;26493;51.938;7.626;2023-01-30T09:54:43;14.00;;;9.70;;
40781;SDS011;26493;51.938;7.626;2023-01-30T09:57:11;14.37;;;10.17;;
40781;SDS011;26493;51.938;7.626;2023-01-30T09:59:42;33.50;;;13.32;;
40781;SDS011;26493;51.938;7.626;2023-01-30T10:02:46;22.38;;;12.32;;
40781;SDS011;26493;51.938;7.626;2023-01-30T10:05:02;28.35;;;12.90;;
40781;SDS011;26493;51.938;7.626;2023-01-30T10:10:04;27.30;;;13.10;;
40781;SDS011;26493;51.938;7.626;2023-01-30T10:12:41;23.50;;;12.63;;
40781;SDS011;26493;51.938;7.626;2023-01-30T10:17:57;27.75;;;12.73;;
40781;SDS011;26493;51.938;7.626;2023-01-30T10:20:37;26.08;;;12.68;;
40781;SDS011;26493;51.938;7.626;2023-01-30T10:25:51;25.67;;;15.60;;
40781;SDS011;26493;51.938;7.626;2023-01-30T10:28:26;30.23;;;18.17;;
40781;SDS011;26493;51.938;7.626;2023-01-30T10:30:55;32.65;;;16.65;;
40781;SDS011;26493;51.938;7.626;2023-01-30T10:33:27;33.58;;;16.95;;
40781;SDS011;26493;51.938;7.626;2023-01-30T10:35:56;21.90;;;16.02;;
40781;SDS011;26493;51.938;7.626;2023-01-30T10:38:26;29.65;;;15.57;;
40781;SDS011;26493;51.938;7.626;2023-01-30T10:48:27;22.73;;;12.25;;
40781;SDS011;26493;51.938;7.626;2023-01-30T10:51:04;21.73;;;12.23;;
40781;SDS011;26493;51.938;7.626;2023-01-30T10:53:36;20.58;;;11.23;;
40781;SDS011;26493;51.938;7.626;2023-01-30T10:56:07;19.08;;;11.40;;
40781;SDS011;26493;51.938;7.626;2023-01-30T11:01:09;20.33;;;12.27;;
40781;SDS011;26493;51.938;7.626;2023-01-30T11:06:06;26.45;;;14.35;;
40781;SDS011;26493;51.938;7.626;2023-01-30T11:08:34;28.92;;;13.57;;
40781;SDS011;26493;51.938;7.626;2023-01-30T11:11:00;22.98;;;11.88;;
40781;SDS011;26493;51.938;7.626;2023-01-30T11:13:30;24.17;;;14.27;;
40781;SDS011;26493;51.938;7.626;2023-01-30T11:15:57;20.98;;;10.93;;
40781;SDS011;26493;51.938;7.626;2023-01-30T11:18:24;23.02;;;10.70;;
40781;SDS011;26493;51.938;7.626;2023-01-30T11:23:24;25.52;;;11.57;;
40781;SDS011;26493;51.938;7.626;2023-01-30T11:25:52;24.43;;;11.67;;
40781;SDS011;26493;51.938;7.626;2023-01-30T11:31:03;24.17;;;10.93;;
40781;SDS011;26493;51.938;7.626;2023-01-30T11:33:34;30.60;;;11.15;;
40781;SDS011;26493;51.938;7.626;2023-01-30T11:36:04;24.67;;;11.77;;
40781;SDS011;26493;51.938;7.626;2023-01-30T11:38:31;25.52;;;11.75;;
40781;SDS011;26493;51.938;7.626;2023-01-30T11:43:31;20.00;;;10.70;;
40781;SDS011;26493;51.938;7.626;2023-01-30T11:45:57;16.88;;;10.13;;
40781;SDS011;26493;51.938;7.626;2023-01-30T11:48:27;22.23;;;10.50;;
40781;SDS011;26493;51.938;7.626;2023-01-30T11:51:00;21.15;;;10.30;;
40781;SDS011;26493;51.938;7.626;2023-01-30T11:55:54;25.13;;;11.60;;
40781;SDS011;26493;51.938;7.626;2023-01-30T11:58:22;30.10;;;11.95;;
40781;SDS011;26493;51.938;7.626;2023-01-30T12:00:48;28.80;;;11.48;;
40781;SDS011;26493;51.938;7.626;2023-01-30T12:03:18;18.77;;;10.13;;
40781;SDS011;26493;51.938;7.626;2023-01-30T12:05:48;28.23;;;11.20;;
40781;SDS011;26493;51.938;7.626;2023-01-30T12:10:57;22.08;;;9.70;;
40781;SDS011;26493;51.938;7.626;2023-01-30T12:13:38;22.58;;;9.43;;
40781;SDS011;26493;51.938;7.626;2023-01-30T12:18:37;23.50;;;10.60;;
40781;SDS011;26493;51.938;7.626;2023-01-30T12:21:17;25.27;;;11.48;;
40781;SDS011;26493;51.938;7.626;2023-01-30T12:26:20;20.55;;;11.05;;
40781;SDS011;26493;51.938;7.626;2023-01-30T12:31:25;21.85;;;10.02;;
40781;SDS011;26493;51.938;7.626;2023-01-30T12:33:53;23.90;;;9.77;;
40781;SDS011;26493;51.938;7.626;2023-01-30T12:39:12;22.13;;;10.52;;
40781;SDS011;26493;51.938;7.626;2023-01-30T12:44:23;22.42;;;10.52;;
40781;SDS011;26493;51.938;7.626;2023-01-30T12:47:06;28.13;;;11.10;;
40781;SDS011;26493;51.938;7.626;2023-01-30T12:49:57;28.10;;;11.02;;
40781;SDS011;26493;51.938;7.626;2023-01-30T13:05:50;24.05;;;11.15;;
40781;SDS011;26493;51.938;7.626;2023-01-30T13:13:42;18.33;;;10.20;;
40781;SDS011;26493;51.938;7.626;2023-01-30T13:21:14;21.33;;;10.93;;
40781;SDS011;26493;51.938;7.626;2023-01-30T13:23:46;23.98;;;11.00;;
40781;SDS011;26493;51.938;7.626;2023-01-30T13:26:17;26.05;;;11.18;;
40781;SDS011;26493;51.938;7.626;2023-01-30T13:28:48;26.05;;;12.68;;
40781;SDS011;26493;51.938;7.626;2023-01-30T13:31:19;27.23;;;11.63;;
40781;SDS011;26493;51.938;7.626;2023-01-30T13:33:46;21.10;;;11.07;;
40781;SDS011;26493;51.938;7.626;2023-01-30T13:36:24;25.42;;;11.23;;
40781;SDS011;26493;51.938;7.626;2023-01-30T13:38:59;19.35;;;10.82;;
40781;SDS011;26493;51.938;7.626;2023-01-30T13:41:28;24.58;;;12.27;;
40781;SDS011;26493;51.938;7.626;2023-01-30T13:43:55;27.98;;;18.25;;
40781;SDS011;26493;51.938;7.626;2023-01-30T13:46:22;31.45;;;28.25;;
40781;SDS011;26493;51.938;7.626;2023-01-30T13:49:34;32.85;;;29.25;;
40781;SDS011;26493;51.938;7.626;2023-01-30T13:51:49;31.67;;;26.92;;
40781;SDS011;26493;51.938;7.626;2023-01-30T13:56:52;28.58;;;18.92;;
40781;SDS011;26493;51.938;7.626;2023-01-30T14:09:47;29.27;;;26.13;;
40781;SDS011;26493;51.938;7.626;2023-01-30T14:14:55;21.35;;;19.05;;
40781;SDS011;26493;51.938;7.626;2023-01-30T14:19:58;26.48;;;18.88;;
40781;SDS011;26493;51.938;7.626;2023-01-30T14:27:36;19.88;;;16.40;;
40781;SDS011;26493;51.938;7.626;2023-01-30T14:30:31;21.40;;;16.33;;
40781;SDS011;26493;51.938;7.626;2023-01-30T14:32:52;19.83;;;16.73;;
40781;SDS011;26493;51.938;7.626;2023-01-30T14:35:19;23.52;;;16.80;;
40781;SDS011;26493;51.938;7.626;2023-01-30T14:37:47;20.45;;;17.25;;
40781;SDS011;26493;51.938;7.626;2023-01-30T14:48:28;24.52;;;19.08;;
40781;SDS011;26493;51.938;7.626;2023-01-30T14:51:11;26.52;;;17.20;;
40781;SDS011;26493;51.938;7.626;2023-01-30T14:56:13;21.75;;;17.10;;
40781;SDS011;26493;51.938;7.626;2023-01-30T14:58:49;26.38;;;15.93;;
40781;SDS011;26493;51.938;7.626;2023-01-30T15:01:15;26.95;;;13.75;;
40781;SDS011;26493;51.938;7.626;2023-01-30T15:03:44;20.83;;;11.75;;
40781;SDS011;26493;51.938;7.626;2023-01-30T15:06:11;23.80;;;12.07;;
40781;SDS011;26493;51.938;7.626;2023-01-30T15:08:39;21.45;;;11.68;;
40781;SDS011;26493;51.938;7.626;2023-01-30T15:11:23;22.00;;;12.07;;
40781;SDS011;26493;51.938;7.626;2023-01-30T15:17:04;26.08;;;12.98;;
40781;SDS011;26493;51.938;7.626;2023-01-30T15:30:01;24.13;;;10.95;;
40781;SDS011;26493;51.938;7.626;2023-01-30T15:32:26;25.08;;;11.77;;
40781;SDS011;26493;51.938;7.626;2023-01-30T15:34:57;22.23;;;12.23;;
40781;SDS011;26493;51.938;7.626;2023-01-30T15:37:45;21.08;;;12.07;;
40781;SDS011;26493;51.938;7.626;2023-01-30T15:50:41;37.30;;;14.02;;
40781;SDS011;26493;51.938;7.626;2023-01-30T15:53:12;27.08;;;12.35;;
40781;SDS011;26493;51.938;7.626;2023-01-30T15:55:40;34.43;;;11.90;;
40781;SDS011;26493;51.938;7.626;2023-01-30T15:58:25;26.47;;;11.57;;
40781;SDS011;26493;51.938;7.626;2023-01-30T16:00:52;30.58;;;12.93;;
40781;SDS011;26493;51.938;7.626;2023-01-30T16:05:46;31.30;;;12.48;;
40781;SDS011;26493;51.938;7.626;2023-01-30T16:08:17;26.58;;;12.27;;
40781;SDS011;26493;51.938;7.626;2023-01-30T16:10:44;22.27;;;12.88;;
40781;SDS011;26493;51.938;7.626;2023-01-30T16:13:10;26.13;;;12.13;;
40781;SDS011;26493;51.938;7.626;2023-01-30T16:15:40;27.15;;;12.80;;
40781;SDS011;26493;51.938;7.626;2023-01-30T16:18:24;23.23;;;11.52;;
40781;SDS011;26493;51.938;7.626;2023-01-30T16:20:56;29.10;;;11.95;;
40781;SDS011;26493;51.938;7.626;2023-01-30T16:23:27;24.13;;;11.98;;
40781;SDS011;26493;51.938;7.626;2023-01-30T16:25:54;31.35;;;11.85;;
40781;SDS011;26493;51.938;7.626;2023-01-30T16:28:21;22.10;;;11.43;;
40781;SDS011;26493;51.938;7.626;2023-01-30T16:30:55;29.15;;;12.13;;
40781;SDS011;26493;51.938;7.626;2023-01-30T16:33:21;25.17;;;11.15;;
40781;SDS011;26493;51.938;7.626;2023-01-30T16:35:47;26.10;;;11.32;;
40781;SDS011;26493;51.938;7.626;2023-01-30T16:40:58;23.20;;;10.73;;
40781;SDS011;26493;51.938;7.626;2023-01-30T16:43:25;22.35;;;12.13;;
40781;SDS011;26493;51.938;7.626;2023-01-30T16:50:45;28.38;;;11.15;;
40781;SDS011;26493;51.938;7.626;2023-01-30T16:53:16;29.02;;;11.35;;
40781;SDS011;26493;51.938;7.626;2023-01-30T16:56:16;33.92;;;12.82;;
40781;SDS011;26493;51.938;7.626;2023-01-30T16:58:35;24.88;;;12.13;;
40781;SDS011;26493;51.938;7.626;2023-01-30T17:01:03;36.03;;;13.02;;
40781;SDS011;26493;51.938;7.626;2023-01-30T17:03:31;26.60;;;11.68;;
40781;SDS011;26493;51.938;7.626;2023-01-30T17:06:02;25.05;;;10.65;;
40781;SDS011;26493;51.938;7.626;2023-01-30T17:08:43;19.88;;;10.30;;
40781;SDS011;26493;51.938;7.626;2023-01-30T17:16:45;26.17;;;12.10;;
40781;SDS011;26493;51.938;7.626;2023-01-30T17:19:12;19.63;;;10.43;;
40781;SDS011;26493;51.938;7.626;2023-01-30T17:21:43;26.02;;;11.27;;
40781;SDS011;26493;51.938;7.626;2023-01-30T17:24:11;22.52;;;11.93;;
40781;SDS011;26493;51.938;7.626;2023-01-30T17:26:38;26.75;;;11.95;;
40781;SDS011;26493;51.938;7.626;2023-01-30T17:29:04;25.55;;;10.88;;